Time;durP1;ratioP1;P1;durP2;ratioP2;P2;SDS_P1;SDS_P2;PMS_P1;PMS_P2;Temp;Humidity;BMP_temperature;BMP_pressure;BME280_temperature;BME280_humidity;BME280_pressure;Samples;Min_cycle;Max_cycle;Signal;HPM_P1;HPM_P2
2023/03/20 00:01:17;;;;;;;8.47;5.33;;;8.40;99.90;;;;;;4957286;28;20039;-78
2023/03/20 00:03:43;;;;;;;8.93;5.23;;;8.40;99.90;;;;;;4957074;28;20054;-78
2023/03/20 00:06:17;;;;;;;8.60;5.60;;;8.40;99.90;;;;;;4955686;28;20035;-78
2023/03/20 00:08:47;;;;;;;8.70;5.50;;;8.40;99.90;;;;;;4955211;28;20118;-78
2023/03/20 00:11:31;;;;;;;8.27;5.27;;;8.40;99.90;;;;;;4957081;28;20125;-78
2023/03/20 00:14:06;;;;;;;8.18;5.20;;;8.30;99.90;;;;;;4956996;28;20035;-78
2023/03/20 00:16:38;;;;;;;7.72;5.10;;;8.30;99.90;;;;;;4956261;28;20034;-78
2023/03/20 00:19:05;;;;;;;10.87;5.53;;;8.30;99.90;;;;;;4957053;28;20436;-78
2023/03/20 00:21:31;;;;;;;8.47;5.33;;;8.30;99.90;;;;;;4956783;28;20133;-78
2023/03/20 00:23:57;;;;;;;9.07;4.80;;;8.30;99.90;;;;;;4956595;28;20031;-78
2023/03/20 00:26:32;;;;;;;10.37;5.27;;;8.30;99.90;;;;;;4956570;28;20061;-78
2023/03/20 00:28:58;;;;;;;6.53;5.15;;;8.20;99.90;;;;;;4956431;28;20034;-78
2023/03/20 00:31:25;;;;;;;6.33;4.97;;;8.20;99.90;;;;;;4956755;28;20109;-78
2023/03/20 00:33:53;;;;;;;7.43;4.70;;;8.20;99.90;;;;;;4956435;28;20039;-78
2023/03/20 00:36:18;;;;;;;5.67;4.47;;;8.20;99.90;;;;;;4957129;28;20026;-77
2023/03/20 00:38:44;;;;;;;10.07;4.83;;;8.20;99.90;;;;;;4956204;28;20031;-78
2023/03/20 00:41:32;;;;;;;5.93;4.20;;;8.20;99.90;;;;;;4956995;28;20557;-78
2023/03/20 00:44:02;;;;;;;5.03;3.90;;;8.20;99.90;;;;;;4952073;28;20398;-78
2023/03/20 00:46:30;;;;;;;6.13;4.40;;;8.20;99.90;;;;;;4955324;28;20573;-78
2023/03/20 00:48:56;;;;;;;6.60;3.87;;;8.20;99.90;;;;;;4954449;28;20118;-78
2023/03/20 00:51:22;;;;;;;6.47;3.60;;;8.20;99.90;;;;;;4956657;28;20039;-78
2023/03/20 00:53:47;;;;;;;4.30;3.73;;;8.20;99.90;;;;;;4956070;28;20028;-78
2023/03/20 00:56:35;;;;;;;4.43;3.60;;;8.20;99.90;;;;;;4956051;28;20049;-78
2023/03/20 00:59:02;;;;;;;7.27;4.07;;;8.20;99.90;;;;;;4956022;28;20398;-78
2023/03/20 01:01:29;;;;;;;6.37;3.97;;;8.20;99.90;;;;;;4956317;28;20031;-78
2023/03/20 01:03:55;;;;;;;7.87;4.23;;;8.20;99.90;;;;;;4955651;28;20055;-78
2023/03/20 01:06:21;;;;;;;4.10;3.17;;;8.20;99.90;;;;;;4956194;28;20134;-78
2023/03/20 01:08:47;;;;;;;5.10;3.60;;;8.20;99.90;;;;;;4953711;28;20496;-78
2023/03/20 01:11:15;;;;;;;4.50;3.80;;;8.20;99.90;;;;;;4956711;28;20027;-78
2023/03/20 01:13:41;;;;;;;4.90;3.60;;;8.20;99.90;;;;;;4955604;28;20080;-78
2023/03/20 01:16:21;;;;;;;5.97;3.40;;;8.20;99.90;;;;;;4956212;28;20524;-78
2023/03/20 01:18:47;;;;;;;3.90;3.30;;;8.20;99.90;;;;;;4955299;28;20041;-78
2023/03/20 01:21:13;;;;;;;4.93;3.70;;;8.20;99.90;;;;;;4956047;28;20359;-78
2023/03/20 01:23:38;;;;;;;5.87;3.83;;;8.20;99.90;;;;;;4955163;28;20038;-78
2023/03/20 01:26:17;;;;;;;6.00;3.90;;;8.20;99.90;;;;;;4955610;28;20094;-78
2023/03/20 01:28:43;;;;;;;4.17;3.70;;;8.10;99.90;;;;;;4955534;28;20110;-78
2023/03/20 01:31:08;;;;;;;4.90;3.60;;;8.10;99.90;;;;;;4955630;28;20405;-78
2023/03/20 01:33:34;;;;;;;4.07;3.03;;;8.10;99.90;;;;;;4955436;28;20039;-78
2023/03/20 01:36:00;;;;;;;4.37;3.27;;;8.10;99.90;;;;;;4956893;28;20042;-78
2023/03/20 01:38:27;;;;;;;5.03;3.43;;;8.10;99.90;;;;;;4956220;28;20027;-78
2023/03/20 01:41:00;;;;;;;4.10;3.20;;;8.10;99.90;;;;;;4955855;28;20030;-78
2023/03/20 01:43:27;;;;;;;5.67;3.37;;;8.10;99.90;;;;;;4956043;28;20496;-78
2023/03/20 01:46:08;;;;;;;3.80;3.23;;;8.10;99.90;;;;;;4956823;28;20505;-78
2023/03/20 01:48:49;;;;;;;7.03;3.37;;;8.10;99.90;;;;;;4956536;28;20114;-78
2023/03/20 01:51:21;;;;;;;4.97;3.40;;;8.10;99.90;;;;;;4956793;28;20034;-77
2023/03/20 01:54:08;;;;;;;4.23;3.10;;;8.10;99.90;;;;;;4956504;28;20042;-77
2023/03/20 01:56:40;;;;;;;4.87;3.30;;;8.10;99.90;;;;;;4955940;28;20880;-77
2023/03/20 01:59:13;;;;;;;4.53;2.93;;;8.10;99.90;;;;;;4954767;28;20083;-78
2023/03/20 02:01:40;;;;;;;3.80;3.10;;;8.10;99.90;;;;;;4955590;28;20050;-78
2023/03/20 02:04:07;;;;;;;5.50;3.00;;;8.10;99.90;;;;;;4955269;28;20457;-78
2023/03/20 02:06:34;;;;;;;6.23;3.07;;;8.00;99.90;;;;;;4955333;28;20035;-78
2023/03/20 02:09:00;;;;;;;3.30;3.00;;;8.00;99.90;;;;;;4952980;28;20038;-77
2023/03/20 02:11:26;;;;;;;4.27;2.90;;;8.10;99.90;;;;;;4954898;28;20030;-78
2023/03/20 02:13:55;;;;;;;4.97;3.00;;;8.10;99.90;;;;;;4954607;28;20525;-78
2023/03/20 02:16:21;;;;;;;3.80;3.03;;;8.10;99.90;;;;;;4955131;28;20038;-78
2023/03/20 02:18:50;;;;;;;4.07;3.10;;;8.00;99.90;;;;;;4953855;28;20035;-78
2023/03/20 02:21:57;;;;;;;4.20;2.60;;;8.00;99.90;;;;;;4954629;28;21477;-78
2023/03/20 02:24:41;;;;;;;3.70;2.90;;;8.00;99.90;;;;;;4946680;28;20054;-78
2023/03/20 02:27:37;;;;;;;4.00;2.87;;;8.00;99.90;;;;;;4954742;28;20102;-78
2023/03/20 02:30:12;;;;;;;3.57;2.97;;;8.00;99.90;;;;;;4954560;28;20686;-78
2023/03/20 02:33:11;;;;;;;2.90;2.60;;;8.00;99.90;;;;;;4954870;28;20031;-78
2023/03/20 02:36:09;;;;;;;4.97;2.60;;;8.00;99.90;;;;;;4955018;28;20039;-78
2023/03/20 02:38:45;;;;;;;5.07;2.43;;;8.00;99.90;;;;;;4917905;28;21576;-78
2023/03/20 02:41:30;;;;;;;3.97;2.53;;;8.00;99.90;;;;;;4955082;28;20039;-78
2023/03/20 02:44:20;;;;;;;4.20;2.50;;;8.00;99.90;;;;;;4954484;28;20130;-78
2023/03/20 02:47:10;;;;;;;6.47;2.90;;;8.00;99.90;;;;;;4954667;28;20049;-78
2023/03/20 02:49:53;;;;;;;4.20;2.37;;;8.00;99.90;;;;;;4954653;28;20031;-78
2023/03/20 02:52:29;;;;;;;5.10;3.00;;;8.00;99.90;;;;;;4954436;28;20031;-78
2023/03/20 02:55:13;;;;;;;3.83;2.50;;;7.90;99.90;;;;;;4974612;28;20053;-78
2023/03/20 02:58:09;;;;;;;2.80;2.17;;;8.00;99.90;;;;;;4954325;28;20086;-78
2023/03/20 03:00:49;;;;;;;2.90;2.40;;;8.00;99.90;;;;;;4955009;28;20081;-78
2023/03/20 03:03:34;;;;;;;3.40;2.43;;;7.90;99.90;;;;;;4953930;28;20030;-78
2023/03/20 03:06:16;;;;;;;2.53;2.23;;;7.90;99.90;;;;;;4954685;28;20050;-78
2023/03/20 03:08:46;;;;;;;3.63;2.30;;;7.90;99.90;;;;;;4953057;28;21721;-78
2023/03/20 03:11:12;;;;;;;3.00;2.30;;;7.90;99.90;;;;;;4954785;28;20464;-78
2023/03/20 03:13:45;;;;;;;2.87;2.27;;;7.90;99.90;;;;;;4954214;28;20031;-78
2023/03/20 03:16:33;;;;;;;3.17;2.33;;;7.90;99.90;;;;;;4954542;28;20054;-79
2023/03/20 03:19:21;;;;;;;4.90;2.60;;;7.90;99.90;;;;;;4953501;28;20035;-79
2023/03/20 03:21:48;;;;;;;3.93;2.70;;;7.90;99.90;;;;;;4954452;28;20038;-79
2023/03/20 03:24:32;;;;;;;3.00;2.20;;;7.90;99.90;;;;;;4953211;28;20077;-79
2023/03/20 03:27:00;;;;;;;3.97;2.40;;;7.90;99.90;;;;;;4954224;28;20368;-78
2023/03/20 03:29:32;;;;;;;3.57;2.20;;;7.90;99.90;;;;;;4954623;28;20058;-79
2023/03/20 03:32:01;;;;;;;3.10;2.23;;;7.90;99.90;;;;;;4957524;28;20097;-78
2023/03/20 03:34:27;;;;;;;6.93;2.83;;;7.90;99.90;;;;;;4957753;28;20055;-78
2023/03/20 03:37:19;;;;;;;3.60;2.10;;;7.90;99.90;;;;;;4958126;28;20072;-79
2023/03/20 03:40:00;;;;;;;5.47;2.37;;;7.90;99.90;;;;;;4957653;28;20066;-79
2023/03/20 03:42:38;;;;;;;3.17;2.17;;;7.90;99.90;;;;;;4956724;28;20026;-79
2023/03/20 03:45:34;;;;;;;3.80;2.30;;;7.90;99.90;;;;;;4955937;28;20513;-79
2023/03/20 03:48:15;;;;;;;3.93;2.20;;;7.90;99.90;;;;;;4956834;28;20041;-79
2023/03/20 03:50:59;;;;;;;6.17;2.50;;;7.90;99.90;;;;;;4957867;28;20062;-79
2023/03/20 03:53:31;;;;;;;3.40;2.30;;;7.90;99.90;;;;;;4957191;28;20664;-79
2023/03/20 03:56:04;;;;;;;3.07;1.93;;;7.90;99.90;;;;;;4957909;28;20650;-79
2023/03/20 03:58:40;;;;;;;2.97;2.00;;;7.90;99.90;;;;;;4956829;28;20019;-79
2023/03/20 04:01:10;;;;;;;2.60;1.93;;;7.90;99.90;;;;;;4957856;28;20027;-79
2023/03/20 04:03:40;;;;;;;2.40;1.93;;;7.90;99.90;;;;;;4956722;28;20024;-79
2023/03/20 04:06:10;;;;;;;2.07;1.70;;;8.00;99.90;;;;;;4957591;28;20049;-79
2023/03/20 04:08:36;;;;;;;3.83;1.87;;;8.00;99.90;;;;;;4956825;28;20034;-79
2023/03/20 04:11:01;;;;;;;3.93;1.83;;;8.00;99.90;;;;;;4957258;28;20054;-78
2023/03/20 04:13:27;;;;;;;2.17;1.77;;;8.10;99.90;;;;;;4956958;28;20046;-78
2023/03/20 04:15:52;;;;;;;3.70;2.00;;;8.10;99.90;;;;;;4957332;28;20061;-79
2023/03/20 04:18:18;;;;;;;3.30;2.40;;;8.10;99.90;;;;;;4956577;28;20038;-78
2023/03/20 04:20:46;;;;;;;2.53;1.80;;;8.10;99.90;;;;;;4956617;28;20022;-79
2023/03/20 04:23:12;;;;;;;4.50;2.20;;;8.10;99.90;;;;;;4956445;28;20114;-78
2023/03/20 04:25:37;;;;;;;2.70;2.10;;;8.10;99.90;;;;;;4957338;28;20137;-79
2023/03/20 04:28:03;;;;;;;4.13;2.30;;;8.10;99.90;;;;;;4956421;28;20122;-77
2023/03/20 04:30:29;;;;;;;2.80;2.30;;;8.10;99.90;;;;;;4957085;28;20165;-78
2023/03/20 04:32:54;;;;;;;3.70;2.33;;;8.20;99.90;;;;;;4956460;28;20470;-79
2023/03/20 04:35:20;;;;;;;3.90;2.80;;;8.10;99.90;;;;;;4957205;28;20015;-79
2023/03/20 04:37:46;;;;;;;4.03;3.00;;;8.10;99.90;;;;;;4955201;28;20027;-78
2023/03/20 04:40:12;;;;;;;3.43;2.77;;;8.10;99.90;;;;;;4955249;28;20566;-78
2023/03/20 04:42:37;;;;;;;4.00;2.90;;;8.10;99.90;;;;;;4956795;28;20074;-78
2023/03/20 04:45:04;;;;;;;4.40;3.40;;;8.10;99.90;;;;;;4956574;28;20031;-78
2023/03/20 04:47:30;;;;;;;5.00;3.43;;;8.10;99.90;;;;;;4956132;28;20698;-78
2023/03/20 04:49:55;;;;;;;4.67;3.40;;;8.10;99.90;;;;;;4956485;28;20035;-79
2023/03/20 04:52:21;;;;;;;5.53;3.73;;;8.10;99.90;;;;;;4954976;28;20027;-79
2023/03/20 04:54:46;;;;;;;4.60;4.03;;;8.00;99.90;;;;;;4956716;28;20042;-78
2023/03/20 04:57:12;;;;;;;6.43;4.17;;;8.00;99.90;;;;;;4955862;28;20046;-79
2023/03/20 04:59:37;;;;;;;5.43;4.63;;;7.90;99.90;;;;;;4955943;28;20042;-78
2023/03/20 05:02:03;;;;;;;5.50;4.37;;;7.90;99.90;;;;;;4955467;28;20055;-79
2023/03/20 05:04:28;;;;;;;6.23;4.40;;;7.90;99.90;;;;;;4955846;28;20027;-78
2023/03/20 05:06:55;;;;;;;5.40;4.60;;;7.80;99.90;;;;;;4955762;28;20036;-79
2023/03/20 05:09:21;;;;;;;7.30;4.10;;;7.80;99.90;;;;;;4956116;28;20031;-78
2023/03/20 05:11:46;;;;;;;5.27;4.30;;;7.90;99.90;;;;;;4955938;28;20059;-81
2023/03/20 05:14:12;;;;;;;7.50;4.60;;;7.90;99.90;;;;;;4955685;28;20035;-80
2023/03/20 05:16:38;;;;;;;5.60;4.43;;;7.80;99.90;;;;;;4955664;28;20414;-80
2023/03/20 05:19:04;;;;;;;6.03;4.80;;;7.80;99.90;;;;;;4955786;28;20061;-80
2023/03/20 05:21:29;;;;;;;6.53;5.00;;;7.80;99.90;;;;;;4955501;28;20577;-80
2023/03/20 05:23:55;;;;;;;5.57;4.80;;;7.70;99.90;;;;;;4955970;28;20027;-81
2023/03/20 05:26:20;;;;;;;5.13;4.63;;;7.70;99.90;;;;;;4956364;28;20077;-80
2023/03/20 05:28:46;;;;;;;8.03;4.93;;;7.70;99.90;;;;;;4955933;28;20086;-80
2023/03/20 05:31:12;;;;;;;7.03;5.00;;;7.70;99.90;;;;;;4955629;28;20077;-80
2023/03/20 05:33:37;;;;;;;8.10;5.40;;;7.60;99.90;;;;;;4954178;28;20085;-80
2023/03/20 05:36:04;;;;;;;6.40;4.90;;;7.60;99.90;;;;;;4956049;28;20612;-80
2023/03/20 05:38:30;;;;;;;6.07;5.43;;;7.60;99.90;;;;;;4955334;28;20085;-80
2023/03/20 05:40:57;;;;;;;6.73;5.03;;;7.60;99.90;;;;;;4955971;28;20462;-80
2023/03/20 05:43:22;;;;;;;6.53;5.60;;;7.60;99.90;;;;;;4955103;28;20521;-80
2023/03/20 05:45:48;;;;;;;7.90;5.60;;;7.60;99.90;;;;;;4955341;28;20070;-80
2023/03/20 05:48:14;;;;;;;6.83;6.00;;;7.60;99.90;;;;;;4955450;28;20041;-80
2023/03/20 05:50:40;;;;;;;6.03;5.43;;;7.60;99.90;;;;;;4955782;28;20035;-80
2023/03/20 05:53:06;;;;;;;8.37;6.30;;;7.50;99.90;;;;;;4954884;28;20514;-81
2023/03/20 05:55:32;;;;;;;7.13;6.00;;;7.50;99.90;;;;;;4956045;28;20054;-81
2023/03/20 05:57:57;;;;;;;7.57;6.03;;;7.60;99.90;;;;;;4953947;28;20054;-80
2023/03/20 06:00:26;;;;;;;8.17;6.53;;;7.50;99.90;;;;;;4952951;28;20042;-80
2023/03/20 06:02:51;;;;;;;7.37;6.43;;;7.50;99.90;;;;;;4954482;28;20474;-80
2023/03/20 06:05:17;;;;;;;7.20;6.43;;;7.50;99.90;;;;;;4955707;28;20047;-80
2023/03/20 06:07:43;;;;;;;7.90;6.70;;;7.50;99.90;;;;;;4954875;28;20125;-80
2023/03/20 06:10:09;;;;;;;8.47;6.70;;;7.50;99.90;;;;;;4955224;28;20130;-80
2023/03/20 06:12:35;;;;;;;7.57;6.37;;;7.60;99.90;;;;;;4954899;28;20046;-80
2023/03/20 06:15:01;;;;;;;9.10;6.50;;;7.50;99.90;;;;;;4955155;28;20042;-80
2023/03/20 06:17:26;;;;;;;10.03;7.00;;;7.50;99.90;;;;;;4954664;28;20114;-80
2023/03/20 06:19:52;;;;;;;8.33;7.03;;;7.60;99.90;;;;;;4954683;28;20035;-80
2023/03/20 06:22:18;;;;;;;9.73;7.20;;;7.50;99.90;;;;;;4954237;28;20031;-80
2023/03/20 06:24:43;;;;;;;10.27;7.33;;;7.50;99.90;;;;;;4954414;28;20041;-80
2023/03/20 06:27:09;;;;;;;11.60;7.40;;;7.50;99.90;;;;;;4954120;28;20042;-81
2023/03/20 06:29:34;;;;;;;9.37;7.30;;;7.50;99.90;;;;;;4953399;28;20038;-80
2023/03/20 06:32:00;;;;;;;8.10;7.00;;;7.60;99.90;;;;;;4954583;28;20042;-79
2023/03/20 06:34:26;;;;;;;8.40;7.03;;;7.60;99.90;;;;;;4954972;28;20129;-80
2023/03/20 06:36:52;;;;;;;9.33;6.93;;;7.60;99.90;;;;;;4954713;28;20126;-80
2023/03/20 06:39:17;;;;;;;11.23;7.60;;;7.70;99.90;;;;;;4952491;28;20766;-80
2023/03/20 06:41:43;;;;;;;8.23;7.33;;;7.70;99.90;;;;;;4953338;28;20031;-80
2023/03/20 06:44:09;;;;;;;11.30;7.63;;;7.60;99.90;;;;;;4953777;28;20067;-80
2023/03/20 06:46:35;;;;;;;10.17;6.87;;;7.60;99.90;;;;;;4954530;28;20050;-80
2023/03/20 06:49:00;;;;;;;7.93;7.13;;;7.60;99.90;;;;;;4954182;28;20481;-79
2023/03/20 06:51:26;;;;;;;11.00;7.83;;;7.70;99.90;;;;;;4954424;28;20035;-79
2023/03/20 06:53:53;;;;;;;10.47;7.13;;;7.70;99.90;;;;;;4952343;28;20055;-79
2023/03/20 06:56:18;;;;;;;7.40;6.60;;;7.70;99.90;;;;;;4954567;28;20402;-79
2023/03/20 06:58:44;;;;;;;9.50;6.67;;;7.80;99.90;;;;;;4953588;28;20027;-79
2023/03/20 07:01:12;;;;;;;8.53;7.03;;;7.90;99.90;;;;;;4955133;28;20027;-80
2023/03/20 07:03:38;;;;;;;8.80;7.27;;;8.00;99.90;;;;;;4954564;28;20031;-80
2023/03/20 07:06:05;;;;;;;8.03;6.63;;;8.10;99.90;;;;;;4956922;28;20109;-79
2023/03/20 07:08:31;;;;;;;7.83;6.80;;;8.20;99.90;;;;;;4957148;28;20608;-79
2023/03/20 07:10:57;;;;;;;8.73;6.20;;;8.20;99.90;;;;;;4958348;28;20086;-80
2023/03/20 07:13:23;;;;;;;9.17;6.60;;;8.30;99.90;;;;;;4957109;28;20034;-79
2023/03/20 07:15:49;;;;;;;7.73;6.43;;;8.30;99.90;;;;;;4958301;28;20038;-79
2023/03/20 07:18:15;;;;;;;9.17;6.83;;;8.40;99.90;;;;;;4957245;28;20126;-80
2023/03/20 07:20:40;;;;;;;7.70;6.87;;;8.40;99.90;;;;;;4957426;28;20118;-79
2023/03/20 07:23:06;;;;;;;7.70;6.17;;;8.40;99.90;;;;;;4957412;28;20046;-78
2023/03/20 07:25:31;;;;;;;8.93;6.80;;;8.50;99.90;;;;;;4957463;28;20076;-80
2023/03/20 07:27:58;;;;;;;9.80;6.33;;;8.60;99.90;;;;;;4953548;28;20542;-79
2023/03/20 07:30:23;;;;;;;6.93;6.20;;;8.60;99.90;;;;;;4953132;28;20506;-79
2023/03/20 07:32:49;;;;;;;11.50;6.20;;;8.70;99.90;;;;;;4950619;28;20034;-80
2023/03/20 07:35:15;;;;;;;7.30;6.37;;;8.80;99.90;;;;;;4952308;28;20046;-79
2023/03/20 07:37:41;;;;;;;9.63;6.33;;;8.80;99.90;;;;;;4952213;28;20038;-83
2023/03/20 07:40:07;;;;;;;9.63;6.73;;;8.90;99.90;;;;;;4953803;28;20046;-80
2023/03/20 07:42:33;;;;;;;7.67;6.10;;;8.90;99.90;;;;;;4952276;28;20132;-81
2023/03/20 07:44:58;;;;;;;11.47;6.03;;;8.80;99.90;;;;;;4953283;28;20470;-81
2023/03/20 07:47:24;;;;;;;8.83;6.40;;;8.80;99.90;;;;;;4953817;28;20085;-81
2023/03/20 07:49:49;;;;;;;8.20;5.83;;;8.80;99.90;;;;;;4952412;28;20038;-81
2023/03/20 07:52:16;;;;;;;10.23;5.73;;;8.80;99.90;;;;;;4951086;28;20387;-81
2023/03/20 07:54:41;;;;;;;6.47;5.60;;;8.80;99.90;;;;;;4953885;28;20038;-81
2023/03/20 07:57:07;;;;;;;7.33;6.00;;;8.90;99.90;;;;;;4953060;28;20042;-81
2023/03/20 07:59:32;;;;;;;5.97;5.37;;;9.00;99.90;;;;;;4952217;28;20036;-81
2023/03/20 08:01:58;;;;;;;7.90;5.30;;;9.00;99.90;;;;;;4951660;28;20042;-81
2023/03/20 08:04:24;;;;;;;7.47;5.60;;;9.20;99.90;;;;;;4953109;28;20086;-81
2023/03/20 08:06:50;;;;;;;9.80;6.33;;;9.30;99.90;;;;;;4953270;28;20165;-81
2023/03/20 08:09:16;;;;;;;7.73;5.20;;;9.40;99.90;;;;;;4951231;28;20062;-81
2023/03/20 08:11:42;;;;;;;6.63;5.20;;;9.40;99.90;;;;;;4950556;28;20811;-81
2023/03/20 08:14:08;;;;;;;6.17;5.13;;;9.50;99.90;;;;;;4951404;28;20101;-81
2023/03/20 08:16:34;;;;;;;5.10;4.60;;;9.50;99.90;;;;;;4952375;28;20426;-81
2023/03/20 08:19:00;;;;;;;5.13;4.00;;;9.50;99.90;;;;;;4953336;28;20035;-81
2023/03/20 08:21:30;;;;;;;6.63;4.80;;;9.50;99.90;;;;;;4951988;28;20105;-81
2023/03/20 08:23:56;;;;;;;5.50;4.13;;;9.50;99.90;;;;;;4951880;28;20031;-81
2023/03/20 08:26:22;;;;;;;8.30;4.40;;;9.50;99.90;;;;;;4951975;28;20101;-80
2023/03/20 08:28:48;;;;;;;5.20;4.17;;;9.50;99.90;;;;;;4952169;28;20027;-81
2023/03/20 08:31:15;;;;;;;5.53;4.10;;;9.50;99.90;;;;;;4952301;28;20513;-81
2023/03/20 08:33:40;;;;;;;4.63;3.90;;;9.60;99.90;;;;;;4949981;28;20035;-81
2023/03/20 08:36:06;;;;;;;6.87;4.47;;;9.60;99.90;;;;;;4950266;28;20063;-81
2023/03/20 08:38:32;;;;;;;4.93;4.30;;;9.70;99.90;;;;;;4950264;28;20062;-81
2023/03/20 08:40:58;;;;;;;5.37;3.70;;;9.80;99.90;;;;;;4952185;28;20117;-81
2023/03/20 08:43:24;;;;;;;7.00;3.47;;;9.90;99.90;;;;;;4950337;28;21466;-81
2023/03/20 08:45:49;;;;;;;5.33;3.60;;;10.00;99.90;;;;;;4949856;28;20042;-81
2023/03/20 08:48:15;;;;;;;6.10;3.40;;;10.10;99.90;;;;;;4950658;28;20030;-81
2023/03/20 08:50:41;;;;;;;5.20;3.30;;;10.20;99.90;;;;;;4951960;28;20038;-81
2023/03/20 08:53:07;;;;;;;4.27;3.33;;;10.30;99.90;;;;;;4952891;28;20019;-81
2023/03/20 08:55:32;;;;;;;4.23;3.17;;;10.40;99.90;;;;;;4955367;28;20047;-82
2023/03/20 08:57:58;;;;;;;4.10;3.55;;;10.60;99.90;;;;;;4953368;28;20553;-81
2023/03/20 09:00:24;;;;;;;4.53;3.33;;;10.80;99.90;;;;;;4953440;28;20035;-81
2023/03/20 09:02:50;;;;;;;4.47;3.40;;;10.90;99.90;;;;;;4952723;28;20685;-81
2023/03/20 09:05:16;;;;;;;4.78;2.80;;;11.10;99.90;;;;;;4956434;28;20362;-81
2023/03/20 09:07:42;;;;;;;3.53;2.85;;;11.10;99.90;;;;;;4953711;28;21417;-81
2023/03/20 09:10:09;;;;;;;4.40;2.58;;;11.10;99.90;;;;;;4952622;28;20031;-81
2023/03/20 09:12:35;;;;;;;3.78;2.58;;;11.10;99.90;;;;;;4949504;28;20070;-81
2023/03/20 09:15:02;;;;;;;3.17;2.23;;;11.10;99.90;;;;;;4952157;28;20066;-81
2023/03/20 09:17:27;;;;;;;4.15;2.55;;;11.20;99.90;;;;;;4951292;28;20030;-81
2023/03/20 09:19:53;;;;;;;3.83;2.80;;;11.10;99.90;;;;;;4952730;28;20844;-81
2023/03/20 09:22:19;;;;;;;4.55;2.20;;;11.10;99.90;;;;;;4951228;28;20887;-81
2023/03/20 09:24:45;;;;;;;2.50;2.03;;;11.20;99.90;;;;;;4951298;28;20039;-81
2023/03/20 09:27:14;;;;;;;4.45;2.10;;;11.20;99.90;;;;;;4950933;28;20043;-81
2023/03/20 09:29:41;;;;;;;2.85;1.80;;;11.30;99.90;;;;;;4951603;28;20031;-85
2023/03/20 09:32:10;;;;;;;2.40;1.73;;;11.40;99.90;;;;;;4951128;28;20043;-82
2023/03/20 09:34:36;;;;;;;4.47;2.00;;;11.50;99.90;;;;;;4951077;28;20022;-82
2023/03/20 09:37:02;;;;;;;4.05;1.42;;;11.70;99.90;;;;;;4950715;28;20027;-83
2023/03/20 09:39:29;;;;;;;2.22;1.70;;;11.80;99.90;;;;;;4950897;28;20034;-83
2023/03/20 09:41:59;;;;;;;6.18;1.70;;;11.80;99.90;;;;;;4949238;28;20030;-82
2023/03/20 09:44:54;;;;;;;5.35;1.60;;;11.90;99.90;;;;;;4950920;28;20141;-81
2023/03/20 09:47:39;;;;;;;1.67;1.40;;;11.80;99.90;;;;;;4950569;28;20069;-82
2023/03/20 09:50:10;;;;;;;4.82;1.30;;;11.90;99.90;;;;;;4949599;28;20045;-82
2023/03/20 09:52:48;;;;;;;2.30;1.50;;;11.90;99.90;;;;;;4948187;28;20043;-82
2023/03/20 09:55:18;;;;;;;2.63;1.55;;;12.10;99.90;;;;;;4950611;28;20034;-82
2023/03/20 09:57:51;;;;;;;2.10;1.50;;;12.20;99.90;;;;;;4950865;28;20053;-82
2023/03/20 10:00:21;;;;;;;1.77;1.30;;;12.10;99.90;;;;;;4952013;28;20462;-82
2023/03/20 10:02:53;;;;;;;4.28;1.60;;;12.10;99.90;;;;;;4947820;28;20042;-82
2023/03/20 10:05:22;;;;;;;1.88;1.40;;;12.10;99.90;;;;;;4951756;28;20125;-82
2023/03/20 10:07:48;;;;;;;1.30;1.08;;;12.00;99.90;;;;;;4950033;28;20042;-81
2023/03/20 10:10:15;;;;;;;5.20;1.25;;;12.00;99.90;;;;;;4951241;28;20027;-81
2023/03/20 10:12:43;;;;;;;2.90;1.10;;;12.00;99.90;;;;;;4949238;28;20038;-82
2023/03/20 10:15:27;;;;;;;1.73;1.05;;;12.20;99.90;;;;;;4949547;28;20110;-82
2023/03/20 10:18:09;;;;;;;1.42;1.10;;;12.30;99.90;;;;;;4949815;28;20118;-82
2023/03/20 10:20:56;;;;;;;1.15;1.02;;;12.30;99.90;;;;;;4950214;28;20497;-82
2023/03/20 10:23:50;;;;;;;5.55;1.20;;;12.30;99.90;;;;;;4950084;28;20093;-82
2023/03/20 10:26:20;;;;;;;1.38;1.13;;;12.30;99.90;;;;;;4949520;28;20046;-82
2023/03/20 10:29:19;;;;;;;1.30;1.00;;;12.40;99.90;;;;;;4950369;28;20038;-82
2023/03/20 10:31:58;;;;;;;2.35;1.23;;;12.60;99.90;;;;;;4949136;28;20048;-82
2023/03/20 10:34:50;;;;;;;3.08;1.48;;;13.00;99.90;;;;;;4952010;28;20030;-82
2023/03/20 10:37:32;;;;;;;1.58;1.10;;;13.10;99.90;;;;;;4950089;28;20027;-81
2023/03/20 10:40:12;;;;;;;1.35;0.80;;;13.10;99.90;;;;;;4949134;28;20042;-81
2023/03/20 10:42:42;;;;;;;2.22;1.10;;;13.00;99.90;;;;;;4951647;28;20050;-82
2023/03/20 10:45:20;;;;;;;1.05;0.85;;;13.20;99.90;;;;;;4953283;28;20038;-80
2023/03/20 10:47:50;;;;;;;1.58;1.00;;;13.20;99.90;;;;;;4953845;28;20035;-82
2023/03/20 10:50:27;;;;;;;1.92;0.88;;;13.30;99.90;;;;;;4954775;28;20521;-81
2023/03/20 10:52:54;;;;;;;0.90;0.82;;;13.40;99.90;;;;;;4953433;28;20049;-82
2023/03/20 10:55:27;;;;;;;1.23;0.85;;;13.60;99.90;;;;;;4954119;28;20035;-81
2023/03/20 10:58:19;;;;;;;1.73;1.02;;;13.80;99.90;;;;;;4953634;28;20483;-82
2023/03/20 11:00:45;;;;;;;1.23;0.98;;;14.20;99.90;;;;;;4953920;28;20165;-81
2023/03/20 11:03:27;;;;;;;1.48;0.85;;;14.50;99.90;;;;;;4953249;28;20035;-84
2023/03/20 11:06:06;;;;;;;2.65;0.90;;;14.50;99.90;;;;;;4953965;28;20037;-83
2023/03/20 11:08:47;;;;;;;1.63;0.93;;;14.30;99.90;;;;;;4953619;28;20042;-84
2023/03/20 11:11:12;;;;;;;1.38;0.90;;;14.20;99.90;;;;;;4954614;28;20039;-84
2023/03/20 11:13:42;;;;;;;1.48;0.98;;;13.90;99.90;;;;;;4953858;28;20035;-86
2023/03/20 11:16:24;;;;;;;4.13;1.10;;;13.50;99.90;;;;;;4954776;28;20035;-85
2023/03/20 11:18:52;;;;;;;2.92;1.17;;;13.20;99.90;;;;;;4953858;28;20393;-85
2023/03/20 11:21:30;;;;;;;5.22;1.33;;;13.00;99.90;;;;;;4954062;28;20026;-84
2023/03/20 11:23:56;;;;;;;2.88;1.00;;;12.90;99.90;;;;;;4953937;28;20027;-83
2023/03/20 11:26:36;;;;;;;1.30;1.10;;;12.80;99.90;;;;;;4954190;28;20156;-83
2023/03/20 11:29:06;;;;;;;1.95;1.35;;;12.80;99.90;;;;;;4972631;28;20031;-80
2023/03/20 11:31:37;;;;;;;1.55;1.10;;;12.80;99.90;;;;;;4953116;28;20059;-82
2023/03/20 11:34:03;;;;;;;1.60;1.10;;;12.70;99.90;;;;;;4953747;28;20453;-83
2023/03/20 11:36:31;;;;;;;2.40;1.10;;;12.60;99.90;;;;;;4954421;28;20035;-83
2023/03/20 11:39:09;;;;;;;4.72;1.10;;;12.50;99.90;;;;;;4953546;28;20110;-83
2023/03/20 11:41:46;;;;;;;3.30;1.20;;;12.60;99.90;;;;;;4953951;28;20062;-83
2023/03/20 11:44:29;;;;;;;4.80;1.50;;;12.70;99.90;;;;;;4952316;28;20031;-83
2023/03/20 11:47:03;;;;;;;1.67;1.30;;;12.80;99.90;;;;;;4954042;28;20043;-83
2023/03/20 11:49:31;;;;;;;2.63;1.03;;;12.80;99.90;;;;;;4953989;28;20024;-83
2023/03/20 11:52:10;;;;;;;1.40;1.10;;;12.80;99.90;;;;;;4957246;28;20266;-83
2023/03/20 11:54:36;;;;;;;1.45;1.20;;;12.80;99.90;;;;;;4957508;28;20047;-82
2023/03/20 11:57:02;;;;;;;3.92;1.20;;;12.80;99.90;;;;;;4955506;28;21379;-83
2023/03/20 11:59:36;;;;;;;1.67;1.17;;;12.80;99.90;;;;;;4955620;28;20039;-83
2023/03/20 12:02:21;;;;;;;2.30;1.30;;;12.80;99.90;;;;;;4957402;28;20563;-82
2023/03/20 12:04:47;;;;;;;3.20;1.90;;;12.70;99.90;;;;;;4958238;28;20033;-83
2023/03/20 12:07:26;;;;;;;1.58;1.30;;;12.70;99.90;;;;;;4957210;28;21431;-84
2023/03/20 12:09:58;;;;;;;1.90;1.48;;;12.70;99.90;;;;;;4957919;28;20058;-84
2023/03/20 12:12:46;;;;;;;1.67;1.33;;;12.70;99.90;;;;;;4956654;28;20030;-84
2023/03/20 12:15:11;;;;;;;1.83;1.30;;;12.70;99.90;;;;;;4957371;28;20027;-85
2023/03/20 12:17:59;;;;;;;1.92;1.20;;;12.60;99.90;;;;;;4974461;28;20065;-82
2023/03/20 12:20:40;;;;;;;1.70;1.20;;;12.50;99.90;;;;;;4976350;28;20730;-83
2023/03/20 12:23:09;;;;;;;2.03;0.95;;;12.30;99.90;;;;;;4955985;28;20502;-83
2023/03/20 12:25:51;;;;;;;2.05;1.08;;;12.20;99.90;;;;;;4957013;28;20081;-83
2023/03/20 12:28:40;;;;;;;3.47;1.67;;;12.20;99.90;;;;;;4956412;28;20398;-83
2023/03/20 12:31:19;;;;;;;2.65;1.15;;;12.10;99.90;;;;;;4956955;28;20514;-85
2023/03/20 12:34:10;;;;;;;1.77;1.10;;;12.10;99.90;;;;;;4956017;28;20044;-83
2023/03/20 12:36:40;;;;;;;1.85;1.10;;;12.20;99.90;;;;;;4957105;28;20035;-83
2023/03/20 12:39:22;;;;;;;1.90;1.20;;;12.40;99.90;;;;;;4955958;28;20507;-84
2023/03/20 12:42:05;;;;;;;2.40;1.40;;;12.50;99.90;;;;;;4956603;28;20027;-84
2023/03/20 12:44:43;;;;;;;1.88;1.20;;;12.60;99.90;;;;;;4956293;28;21447;-84
2023/03/20 12:47:11;;;;;;;1.90;1.25;;;12.70;99.90;;;;;;4957009;28;20084;-83
2023/03/20 12:50:03;;;;;;;1.50;1.10;;;12.70;99.90;;;;;;4956267;28;20553;-84
2023/03/20 12:52:45;;;;;;;1.80;1.40;;;12.60;99.90;;;;;;4955222;28;20027;-84
2023/03/20 12:55:24;;;;;;;3.33;1.40;;;12.70;99.90;;;;;;4957267;28;20026;-84
2023/03/20 12:58:03;;;;;;;2.33;1.70;;;12.70;99.90;;;;;;4954797;28;20062;-83
2023/03/20 13:00:48;;;;;;;2.38;1.27;;;12.70;99.90;;;;;;4956555;28;20027;-84
2023/03/20 13:03:43;;;;;;;1.45;1.10;;;12.70;99.90;;;;;;4953740;28;20023;-84
2023/03/20 13:06:23;;;;;;;2.13;1.30;;;12.60;99.90;;;;;;4955360;28;20190;-83
2023/03/20 13:08:51;;;;;;;2.17;1.50;;;12.50;99.90;;;;;;4955099;28;20032;-84
2023/03/20 13:11:37;;;;;;;2.55;1.40;;;12.50;99.90;;;;;;4956235;28;20122;-83
2023/03/20 13:14:30;;;;;;;1.52;1.33;;;12.50;99.90;;;;;;4955764;28;20031;-83